sensor_id;sensor_type;location;lat;lon;timestamp;temperature;humidity
10121;DHT22;5100;45.176;5.714;2023-04-28T00:02:20;20.50;58.10
10121;DHT22;5100;45.176;5.714;2023-04-28T00:04:46;20.50;58.10
10121;DHT22;5100;45.176;5.714;2023-04-28T00:07:12;20.40;58.10
10121;DHT22;5100;45.176;5.714;2023-04-28T00:09:38;20.40;58.30
10121;DHT22;5100;45.176;5.714;2023-04-28T00:12:04;20.40;58.50
10121;DHT22;5100;45.176;5.714;2023-04-28T00:14:31;20.40;58.50
10121;DHT22;5100;45.176;5.714;2023-04-28T00:16:57;20.40;58.50
10121;DHT22;5100;45.176;5.714;2023-04-28T00:19:24;20.40;58.30
10121;DHT22;5100;45.176;5.714;2023-04-28T00:21:50;20.40;58.30
10121;DHT22;5100;45.176;5.714;2023-04-28T00:24:16;20.30;58.40
10121;DHT22;5100;45.176;5.714;2023-04-28T00:26:43;20.40;58.40
10121;DHT22;5100;45.176;5.714;2023-04-28T00:29:08;20.40;58.50
10121;DHT22;5100;45.176;5.714;2023-04-28T00:31:34;20.40;58.70
10121;DHT22;5100;45.176;5.714;2023-04-28T00:34:01;20.30;59.00
10121;DHT22;5100;45.176;5.714;2023-04-28T00:36:27;20.30;59.10
10121;DHT22;5100;45.176;5.714;2023-04-28T00:38:57;20.30;59.20
10121;DHT22;5100;45.176;5.714;2023-04-28T00:41:24;20.30;59.40
10121;DHT22;5100;45.176;5.714;2023-04-28T00:43:50;20.30;59.40
10121;DHT22;5100;45.176;5.714;2023-04-28T00:46:21;20.30;59.30
10121;DHT22;5100;45.176;5.714;2023-04-28T00:48:50;20.30;59.30
10121;DHT22;5100;45.176;5.714;2023-04-28T00:51:16;20.30;59.40
10121;DHT22;5100;45.176;5.714;2023-04-28T00:53:43;20.30;59.40
10121;DHT22;5100;45.176;5.714;2023-04-28T00:56:09;20.30;59.50
10121;DHT22;5100;45.176;5.714;2023-04-28T00:58:36;20.30;59.50
10121;DHT22;5100;45.176;5.714;2023-04-28T01:01:06;20.30;59.60
10121;DHT22;5100;45.176;5.714;2023-04-28T01:03:34;20.20;59.50
10121;DHT22;5100;45.176;5.714;2023-04-28T01:06:07;20.20;59.40
10121;DHT22;5100;45.176;5.714;2023-04-28T01:08:36;20.20;59.40
10121;DHT22;5100;45.176;5.714;2023-04-28T01:11:03;20.20;59.40
10121;DHT22;5100;45.176;5.714;2023-04-28T01:13:32;20.20;59.60
10121;DHT22;5100;45.176;5.714;2023-04-28T01:15:59;20.20;59.60
10121;DHT22;5100;45.176;5.714;2023-04-28T01:18:25;20.20;59.70
10121;DHT22;5100;45.176;5.714;2023-04-28T01:20:52;20.20;59.60
10121;DHT22;5100;45.176;5.714;2023-04-28T01:23:18;20.20;59.60
10121;DHT22;5100;45.176;5.714;2023-04-28T01:25:44;20.20;59.70
10121;DHT22;5100;45.176;5.714;2023-04-28T01:28:10;20.20;59.80
10121;DHT22;5100;45.176;5.714;2023-04-28T01:30:37;20.10;59.80
10121;DHT22;5100;45.176;5.714;2023-04-28T01:33:03;20.10;59.80
10121;DHT22;5100;45.176;5.714;2023-04-28T01:35:29;20.10;59.80
10121;DHT22;5100;45.176;5.714;2023-04-28T01:37:56;20.10;59.90
10121;DHT22;5100;45.176;5.714;2023-04-28T01:40:22;20.10;59.80
10121;DHT22;5100;45.176;5.714;2023-04-28T01:42:48;20.10;59.90
10121;DHT22;5100;45.176;5.714;2023-04-28T01:45:14;20.00;59.90
10121;DHT22;5100;45.176;5.714;2023-04-28T01:47:41;20.00;59.90
10121;DHT22;5100;45.176;5.714;2023-04-28T01:50:07;20.00;60.10
10121;DHT22;5100;45.176;5.714;2023-04-28T01:52:34;19.90;60.40
10121;DHT22;5100;45.176;5.714;2023-04-28T01:55:00;19.90;60.40
10121;DHT22;5100;45.176;5.714;2023-04-28T01:57:27;19.90;60.40
10121;DHT22;5100;45.176;5.714;2023-04-28T01:59:55;19.90;60.40
10121;DHT22;5100;45.176;5.714;2023-04-28T02:02:21;19.90;60.40
10121;DHT22;5100;45.176;5.714;2023-04-28T02:04:48;19.80;60.60
10121;DHT22;5100;45.176;5.714;2023-04-28T02:07:14;19.80;60.60
10121;DHT22;5100;45.176;5.714;2023-04-28T02:09:40;19.80;60.60
10121;DHT22;5100;45.176;5.714;2023-04-28T02:12:06;19.80;60.70
10121;DHT22;5100;45.176;5.714;2023-04-28T02:14:34;19.80;60.60
10121;DHT22;5100;45.176;5.714;2023-04-28T02:17:00;19.70;60.60
10121;DHT22;5100;45.176;5.714;2023-04-28T02:19:28;19.70;60.70
10121;DHT22;5100;45.176;5.714;2023-04-28T02:21:54;19.70;60.70
10121;DHT22;5100;45.176;5.714;2023-04-28T02:24:20;19.70;60.60
10121;DHT22;5100;45.176;5.714;2023-04-28T02:26:46;19.70;60.60
10121;DHT22;5100;45.176;5.714;2023-04-28T02:29:12;19.60;60.60
10121;DHT22;5100;45.176;5.714;2023-04-28T02:31:38;19.60;60.50
10121;DHT22;5100;45.176;5.714;2023-04-28T02:34:04;19.60;60.60
10121;DHT22;5100;45.176;5.714;2023-04-28T02:36:31;19.60;60.70
10121;DHT22;5100;45.176;5.714;2023-04-28T02:38:58;19.60;60.80
10121;DHT22;5100;45.176;5.714;2023-04-28T02:41:25;19.50;60.80
10121;DHT22;5100;45.176;5.714;2023-04-28T02:43:51;19.50;60.80
10121;DHT22;5100;45.176;5.714;2023-04-28T02:46:17;19.50;60.80
10121;DHT22;5100;45.176;5.714;2023-04-28T02:48:43;19.50;60.90
10121;DHT22;5100;45.176;5.714;2023-04-28T02:51:11;19.50;61.00
10121;DHT22;5100;45.176;5.714;2023-04-28T02:53:39;19.50;61.10
10121;DHT22;5100;45.176;5.714;2023-04-28T02:56:05;19.40;61.10
10121;DHT22;5100;45.176;5.714;2023-04-28T02:58:32;19.40;61.00
10121;DHT22;5100;45.176;5.714;2023-04-28T03:00:58;19.40;61.00
10121;DHT22;5100;45.176;5.714;2023-04-28T03:03:24;19.40;61.00
10121;DHT22;5100;45.176;5.714;2023-04-28T03:05:50;19.40;61.00
10121;DHT22;5100;45.176;5.714;2023-04-28T03:08:16;19.40;61.10
10121;DHT22;5100;45.176;5.714;2023-04-28T03:10:44;19.40;61.20
10121;DHT22;5100;45.176;5.714;2023-04-28T03:13:10;19.40;61.20
10121;DHT22;5100;45.176;5.714;2023-04-28T03:15:36;19.40;61.20
10121;DHT22;5100;45.176;5.714;2023-04-28T03:18:02;19.30;61.30
10121;DHT22;5100;45.176;5.714;2023-04-28T03:20:28;19.30;61.50
10121;DHT22;5100;45.176;5.714;2023-04-28T03:22:54;19.30;61.50
10121;DHT22;5100;45.176;5.714;2023-04-28T03:25:21;19.30;61.60
10121;DHT22;5100;45.176;5.714;2023-04-28T03:27:47;19.30;61.70
10121;DHT22;5100;45.176;5.714;2023-04-28T03:30:14;19.20;61.70
10121;DHT22;5100;45.176;5.714;2023-04-28T03:32:40;19.20;61.70
10121;DHT22;5100;45.176;5.714;2023-04-28T03:35:06;19.20;61.80
10121;DHT22;5100;45.176;5.714;2023-04-28T03:37:32;19.20;61.70
10121;DHT22;5100;45.176;5.714;2023-04-28T03:39:58;19.20;61.80
10121;DHT22;5100;45.176;5.714;2023-04-28T03:42:25;19.20;61.70
10121;DHT22;5100;45.176;5.714;2023-04-28T03:44:54;19.20;61.70
10121;DHT22;5100;45.176;5.714;2023-04-28T03:47:20;19.20;61.90
10121;DHT22;5100;45.176;5.714;2023-04-28T03:49:47;19.20;61.90
10121;DHT22;5100;45.176;5.714;2023-04-28T03:52:13;19.10;61.90
10121;DHT22;5100;45.176;5.714;2023-04-28T03:54:39;19.10;62.10
10121;DHT22;5100;45.176;5.714;2023-04-28T03:57:08;19.10;62.10
10121;DHT22;5100;45.176;5.714;2023-04-28T03:59:34;19.10;62.00
10121;DHT22;5100;45.176;5.714;2023-04-28T04:02:00;19.10;62.10
10121;DHT22;5100;45.176;5.714;2023-04-28T04:04:27;19.10;62.00
10121;DHT22;5100;45.176;5.714;2023-04-28T04:06:55;19.10;62.10
10121;DHT22;5100;45.176;5.714;2023-04-28T04:09:21;19.10;62.00
10121;DHT22;5100;45.176;5.714;2023-04-28T04:11:47;19.10;62.00
10121;DHT22;5100;45.176;5.714;2023-04-28T04:14:14;19.10;62.10
10121;DHT22;5100;45.176;5.714;2023-04-28T04:16:40;19.10;62.20
10121;DHT22;5100;45.176;5.714;2023-04-28T04:19:06;19.10;62.20
10121;DHT22;5100;45.176;5.714;2023-04-28T04:21:33;19.10;62.30
10121;DHT22;5100;45.176;5.714;2023-04-28T04:23:59;19.10;62.40
10121;DHT22;5100;45.176;5.714;2023-04-28T04:26:27;19.10;62.50
10121;DHT22;5100;45.176;5.714;2023-04-28T04:28:53;19.10;62.40
10121;DHT22;5100;45.176;5.714;2023-04-28T04:31:19;19.10;62.40
10121;DHT22;5100;45.176;5.714;2023-04-28T04:33:47;19.10;62.50
10121;DHT22;5100;45.176;5.714;2023-04-28T04:36:14;19.10;62.50
10121;DHT22;5100;45.176;5.714;2023-04-28T04:38:40;19.10;62.50
10121;DHT22;5100;45.176;5.714;2023-04-28T04:41:07;19.10;62.70
10121;DHT22;5100;45.176;5.714;2023-04-28T04:43:33;19.10;62.80
10121;DHT22;5100;45.176;5.714;2023-04-28T04:45:59;19.10;62.80
10121;DHT22;5100;45.176;5.714;2023-04-28T04:48:25;19.10;62.90
10121;DHT22;5100;45.176;5.714;2023-04-28T04:50:51;19.10;63.00
10121;DHT22;5100;45.176;5.714;2023-04-28T04:53:17;19.10;62.90
10121;DHT22;5100;45.176;5.714;2023-04-28T04:55:43;19.10;63.00
10121;DHT22;5100;45.176;5.714;2023-04-28T04:58:09;19.10;62.80
10121;DHT22;5100;45.176;5.714;2023-04-28T05:00:37;19.10;62.80
10121;DHT22;5100;45.176;5.714;2023-04-28T05:03:04;19.10;63.00
10121;DHT22;5100;45.176;5.714;2023-04-28T05:05:31;19.10;63.20
10121;DHT22;5100;45.176;5.714;2023-04-28T05:07:59;19.10;63.20
10121;DHT22;5100;45.176;5.714;2023-04-28T05:10:25;19.20;63.30
10121;DHT22;5100;45.176;5.714;2023-04-28T05:12:52;19.10;63.40
10121;DHT22;5100;45.176;5.714;2023-04-28T05:15:19;19.20;63.40
10121;DHT22;5100;45.176;5.714;2023-04-28T05:17:46;19.20;63.40
10121;DHT22;5100;45.176;5.714;2023-04-28T05:20:13;19.20;63.20
10121;DHT22;5100;45.176;5.714;2023-04-28T05:22:39;19.20;63.10
10121;DHT22;5100;45.176;5.714;2023-04-28T05:25:06;19.20;63.20
10121;DHT22;5100;45.176;5.714;2023-04-28T05:27:33;19.20;63.30
10121;DHT22;5100;45.176;5.714;2023-04-28T05:29:59;19.30;63.20
10121;DHT22;5100;45.176;5.714;2023-04-28T05:32:26;19.30;63.10
10121;DHT22;5100;45.176;5.714;2023-04-28T05:34:52;19.30;63.00
10121;DHT22;5100;45.176;5.714;2023-04-28T05:37:18;19.40;62.90
10121;DHT22;5100;45.176;5.714;2023-04-28T05:39:45;19.40;62.90
10121;DHT22;5100;45.176;5.714;2023-04-28T05:42:11;19.40;62.90
10121;DHT22;5100;45.176;5.714;2023-04-28T05:44:38;19.40;62.70
10121;DHT22;5100;45.176;5.714;2023-04-28T05:47:04;19.50;62.60
10121;DHT22;5100;45.176;5.714;2023-04-28T05:49:31;19.40;62.50
10121;DHT22;5100;45.176;5.714;2023-04-28T05:51:57;19.50;62.60
10121;DHT22;5100;45.176;5.714;2023-04-28T05:54:23;19.50;62.60
10121;DHT22;5100;45.176;5.714;2023-04-28T05:56:51;19.50;62.60
10121;DHT22;5100;45.176;5.714;2023-04-28T05:59:17;19.50;62.90
10121;DHT22;5100;45.176;5.714;2023-04-28T06:01:43;19.50;62.80
10121;DHT22;5100;45.176;5.714;2023-04-28T06:04:09;19.60;62.70
10121;DHT22;5100;45.176;5.714;2023-04-28T06:06:35;19.60;62.50
10121;DHT22;5100;45.176;5.714;2023-04-28T06:09:02;19.60;62.30
10121;DHT22;5100;45.176;5.714;2023-04-28T06:11:28;19.60;62.20
10121;DHT22;5100;45.176;5.714;2023-04-28T06:13:54;19.70;62.10
10121;DHT22;5100;45.176;5.714;2023-04-28T06:16:21;19.70;62.10
10121;DHT22;5100;45.176;5.714;2023-04-28T06:18:48;19.80;62.00
10121;DHT22;5100;45.176;5.714;2023-04-28T06:21:15;19.80;61.90
10121;DHT22;5100;45.176;5.714;2023-04-28T06:23:41;19.90;61.60
10121;DHT22;5100;45.176;5.714;2023-04-28T06:26:08;20.00;61.40
10121;DHT22;5100;45.176;5.714;2023-04-28T06:28:37;20.10;61.20
10121;DHT22;5100;45.176;5.714;2023-04-28T06:31:03;20.20;61.00
10121;DHT22;5100;45.176;5.714;2023-04-28T06:33:30;20.30;60.90
10121;DHT22;5100;45.176;5.714;2023-04-28T06:35:56;20.30;60.80
10121;DHT22;5100;45.176;5.714;2023-04-28T06:38:22;20.40;60.70
10121;DHT22;5100;45.176;5.714;2023-04-28T06:40:48;20.40;60.70
10121;DHT22;5100;45.176;5.714;2023-04-28T06:43:14;20.50;60.70
10121;DHT22;5100;45.176;5.714;2023-04-28T06:45:41;20.50;60.70
10121;DHT22;5100;45.176;5.714;2023-04-28T06:48:08;20.50;60.70
10121;DHT22;5100;45.176;5.714;2023-04-28T06:50:36;20.60;60.80
10121;DHT22;5100;45.176;5.714;2023-04-28T06:53:05;20.60;60.70
10121;DHT22;5100;45.176;5.714;2023-04-28T06:55:33;20.60;60.60
10121;DHT22;5100;45.176;5.714;2023-04-28T06:57:59;20.60;60.50
10121;DHT22;5100;45.176;5.714;2023-04-28T07:00:25;20.60;60.50
10121;DHT22;5100;45.176;5.714;2023-04-28T07:02:51;20.60;60.50
10121;DHT22;5100;45.176;5.714;2023-04-28T07:05:17;20.60;60.60
10121;DHT22;5100;45.176;5.714;2023-04-28T07:07:44;20.60;60.70
10121;DHT22;5100;45.176;5.714;2023-04-28T07:10:10;20.60;60.70
10121;DHT22;5100;45.176;5.714;2023-04-28T07:12:37;20.60;60.80
10121;DHT22;5100;45.176;5.714;2023-04-28T07:15:04;20.60;60.90
10121;DHT22;5100;45.176;5.714;2023-04-28T07:17:30;20.60;60.80
10121;DHT22;5100;45.176;5.714;2023-04-28T07:19:56;20.70;60.80
10121;DHT22;5100;45.176;5.714;2023-04-28T07:22:22;20.70;60.80
10121;DHT22;5100;45.176;5.714;2023-04-28T07:24:48;20.70;60.90
10121;DHT22;5100;45.176;5.714;2023-04-28T07:27:14;20.70;60.80
10121;DHT22;5100;45.176;5.714;2023-04-28T07:29:40;20.70;60.40
10121;DHT22;5100;45.176;5.714;2023-04-28T07:32:08;20.70;60.20
10121;DHT22;5100;45.176;5.714;2023-04-28T07:34:35;20.70;60.00
10121;DHT22;5100;45.176;5.714;2023-04-28T07:37:02;20.70;60.00
10121;DHT22;5100;45.176;5.714;2023-04-28T07:39:32;20.70;60.00
10121;DHT22;5100;45.176;5.714;2023-04-28T07:42:00;20.80;59.80
10121;DHT22;5100;45.176;5.714;2023-04-28T07:44:28;20.80;59.80
10121;DHT22;5100;45.176;5.714;2023-04-28T07:46:55;20.80;59.80
10121;DHT22;5100;45.176;5.714;2023-04-28T07:49:21;20.80;59.70
10121;DHT22;5100;45.176;5.714;2023-04-28T07:51:47;20.90;59.60
10121;DHT22;5100;45.176;5.714;2023-04-28T07:54:14;20.90;59.40
10121;DHT22;5100;45.176;5.714;2023-04-28T07:56:44;20.90;59.30
10121;DHT22;5100;45.176;5.714;2023-04-28T07:59:11;20.90;59.20
10121;DHT22;5100;45.176;5.714;2023-04-28T08:01:38;20.90;59.20
10121;DHT22;5100;45.176;5.714;2023-04-28T08:04:04;20.90;59.30
10121;DHT22;5100;45.176;5.714;2023-04-28T08:06:30;20.90;59.30
10121;DHT22;5100;45.176;5.714;2023-04-28T08:08:56;20.90;59.20
10121;DHT22;5100;45.176;5.714;2023-04-28T08:11:22;21.00;59.00
10121;DHT22;5100;45.176;5.714;2023-04-28T08:13:48;21.00;59.00
10121;DHT22;5100;45.176;5.714;2023-04-28T08:16:14;21.00;59.00
10121;DHT22;5100;45.176;5.714;2023-04-28T08:18:41;21.00;59.00
10121;DHT22;5100;45.176;5.714;2023-04-28T08:21:07;21.00;59.00
10121;DHT22;5100;45.176;5.714;2023-04-28T08:23:33;21.00;59.00
10121;DHT22;5100;45.176;5.714;2023-04-28T08:25:59;21.10;59.10
10121;DHT22;5100;45.176;5.714;2023-04-28T08:28:26;21.10;59.10
10121;DHT22;5100;45.176;5.714;2023-04-28T08:30:55;21.20;58.90
10121;DHT22;5100;45.176;5.714;2023-04-28T08:33:22;21.20;58.80
10121;DHT22;5100;45.176;5.714;2023-04-28T08:35:49;21.30;58.80
10121;DHT22;5100;45.176;5.714;2023-04-28T08:38:15;21.30;58.70
10121;DHT22;5100;45.176;5.714;2023-04-28T08:40:43;21.40;58.40
10121;DHT22;5100;45.176;5.714;2023-04-28T08:43:09;21.50;58.20
10121;DHT22;5100;45.176;5.714;2023-04-28T08:45:40;21.60;58.00
10121;DHT22;5100;45.176;5.714;2023-04-28T08:48:26;21.70;57.90
10121;DHT22;5100;45.176;5.714;2023-04-28T08:50:53;21.80;57.60
10121;DHT22;5100;45.176;5.714;2023-04-28T08:53:24;21.90;57.30
10121;DHT22;5100;45.176;5.714;2023-04-28T08:55:54;21.90;57.20
10121;DHT22;5100;45.176;5.714;2023-04-28T08:58:26;22.00;57.10
10121;DHT22;5100;45.176;5.714;2023-04-28T09:00:52;22.00;57.00
10121;DHT22;5100;45.176;5.714;2023-04-28T09:03:19;22.00;57.10
10121;DHT22;5100;45.176;5.714;2023-04-28T09:05:46;22.10;57.00
10121;DHT22;5100;45.176;5.714;2023-04-28T09:08:12;22.10;56.90
10121;DHT22;5100;45.176;5.714;2023-04-28T09:10:38;22.10;56.90
10121;DHT22;5100;45.176;5.714;2023-04-28T09:13:05;22.20;56.80
10121;DHT22;5100;45.176;5.714;2023-04-28T09:15:36;22.20;56.90
10121;DHT22;5100;45.176;5.714;2023-04-28T09:18:04;22.30;56.90
10121;DHT22;5100;45.176;5.714;2023-04-28T09:20:32;22.30;56.90
10121;DHT22;5100;45.176;5.714;2023-04-28T09:23:17;22.30;56.90
10121;DHT22;5100;45.176;5.714;2023-04-28T09:26:04;22.40;57.00
10121;DHT22;5100;45.176;5.714;2023-04-28T09:28:32;22.40;56.90
10121;DHT22;5100;45.176;5.714;2023-04-28T09:30:58;22.40;56.90
10121;DHT22;5100;45.176;5.714;2023-04-28T09:33:25;22.40;56.90
10121;DHT22;5100;45.176;5.714;2023-04-28T09:35:51;22.50;56.90
10121;DHT22;5100;45.176;5.714;2023-04-28T09:38:18;22.50;56.90
10121;DHT22;5100;45.176;5.714;2023-04-28T09:41:02;22.50;56.80
10121;DHT22;5100;45.176;5.714;2023-04-28T09:43:35;22.60;56.70
10121;DHT22;5100;45.176;5.714;2023-04-28T09:46:02;22.70;56.70
10121;DHT22;5100;45.176;5.714;2023-04-28T09:48:32;22.70;56.60
10121;DHT22;5100;45.176;5.714;2023-04-28T09:51:01;22.70;56.70
10121;DHT22;5100;45.176;5.714;2023-04-28T09:53:28;22.80;56.60
10121;DHT22;5100;45.176;5.714;2023-04-28T09:55:56;22.80;56.50
10121;DHT22;5100;45.176;5.714;2023-04-28T09:58:24;22.80;56.30
10121;DHT22;5100;45.176;5.714;2023-04-28T10:00:58;22.90;56.30
10121;DHT22;5100;45.176;5.714;2023-04-28T10:03:26;22.90;56.10
10121;DHT22;5100;45.176;5.714;2023-04-28T10:05:53;22.90;56.20
10121;DHT22;5100;45.176;5.714;2023-04-28T10:08:20;22.90;56.30
10121;DHT22;5100;45.176;5.714;2023-04-28T10:10:51;22.80;56.30
10121;DHT22;5100;45.176;5.714;2023-04-28T10:13:20;22.80;56.50
10121;DHT22;5100;45.176;5.714;2023-04-28T10:15:47;22.80;56.60
10121;DHT22;5100;45.176;5.714;2023-04-28T10:18:14;22.80;56.60
10121;DHT22;5100;45.176;5.714;2023-04-28T10:20:52;22.80;56.80
10121;DHT22;5100;45.176;5.714;2023-04-28T10:23:51;22.70;56.80
10121;DHT22;5100;45.176;5.714;2023-04-28T10:26:34;22.80;57.00
10121;DHT22;5100;45.176;5.714;2023-04-28T10:29:12;22.70;57.00
10121;DHT22;5100;45.176;5.714;2023-04-28T10:34:41;22.80;56.90
10121;DHT22;5100;45.176;5.714;2023-04-28T10:37:07;22.90;56.90
10121;DHT22;5100;45.176;5.714;2023-04-28T10:39:33;22.90;56.90
10121;DHT22;5100;45.176;5.714;2023-04-28T10:42:00;23.00;56.90
10121;DHT22;5100;45.176;5.714;2023-04-28T10:47:06;23.00;56.90
10121;DHT22;5100;45.176;5.714;2023-04-28T11:00:41;23.20;57.10
10121;DHT22;5100;45.176;5.714;2023-04-28T11:03:07;23.20;57.10
10121;DHT22;5100;45.176;5.714;2023-04-28T11:05:33;23.20;57.20
10121;DHT22;5100;45.176;5.714;2023-04-28T11:08:30;23.30;57.30
10121;DHT22;5100;45.176;5.714;2023-04-28T11:11:15;23.30;57.20
10121;DHT22;5100;45.176;5.714;2023-04-28T11:13:42;23.40;57.20
10121;DHT22;5100;45.176;5.714;2023-04-28T11:16:14;23.40;57.00
10121;DHT22;5100;45.176;5.714;2023-04-28T11:19:00;23.50;57.20
10121;DHT22;5100;45.176;5.714;2023-04-28T11:21:31;23.50;57.20
10121;DHT22;5100;45.176;5.714;2023-04-28T11:23:57;23.60;57.20
10121;DHT22;5100;45.176;5.714;2023-04-28T11:26:23;23.60;57.10
10121;DHT22;5100;45.176;5.714;2023-04-28T11:28:52;23.70;56.90
10121;DHT22;5100;45.176;5.714;2023-04-28T11:31:19;23.70;56.90
10121;DHT22;5100;45.176;5.714;2023-04-28T11:34:03;23.80;56.80
10121;DHT22;5100;45.176;5.714;2023-04-28T11:36:35;23.80;56.80
10121;DHT22;5100;45.176;5.714;2023-04-28T11:39:09;23.80;56.80
10121;DHT22;5100;45.176;5.714;2023-04-28T11:41:40;23.90;56.80
10121;DHT22;5100;45.176;5.714;2023-04-28T11:44:19;23.90;56.60
10121;DHT22;5100;45.176;5.714;2023-04-28T11:46:47;23.90;56.70
10121;DHT22;5100;45.176;5.714;2023-04-28T11:49:17;23.90;56.60
10121;DHT22;5100;45.176;5.714;2023-04-28T11:51:43;23.90;56.70
10121;DHT22;5100;45.176;5.714;2023-04-28T11:54:20;24.00;56.70
10121;DHT22;5100;45.176;5.714;2023-04-28T11:56:46;24.00;56.80
10121;DHT22;5100;45.176;5.714;2023-04-28T11:59:13;24.00;56.80
10121;DHT22;5100;45.176;5.714;2023-04-28T12:01:49;24.00;56.90
10121;DHT22;5100;45.176;5.714;2023-04-28T12:04:31;24.00;56.80
10121;DHT22;5100;45.176;5.714;2023-04-28T12:09:27;24.10;56.90
10121;DHT22;5100;45.176;5.714;2023-04-28T12:11:54;24.10;56.70
10121;DHT22;5100;45.176;5.714;2023-04-28T12:14:20;24.20;56.70
10121;DHT22;5100;45.176;5.714;2023-04-28T12:16:46;24.20;56.70
10121;DHT22;5100;45.176;5.714;2023-04-28T12:19:14;24.20;56.70
10121;DHT22;5100;45.176;5.714;2023-04-28T12:21:41;24.20;56.50
10121;DHT22;5100;45.176;5.714;2023-04-28T12:24:18;24.20;56.40
10121;DHT22;5100;45.176;5.714;2023-04-28T12:26:45;24.30;56.30
10121;DHT22;5100;45.176;5.714;2023-04-28T12:29:37;24.30;56.30
10121;DHT22;5100;45.176;5.714;2023-04-28T12:32:05;24.30;56.30
10121;DHT22;5100;45.176;5.714;2023-04-28T12:34:31;24.30;56.30
10121;DHT22;5100;45.176;5.714;2023-04-28T12:37:02;24.40;56.50
10121;DHT22;5100;45.176;5.714;2023-04-28T12:39:28;24.40;56.50
10121;DHT22;5100;45.176;5.714;2023-04-28T12:41:55;24.40;56.60
10121;DHT22;5100;45.176;5.714;2023-04-28T12:44:24;24.50;56.60
10121;DHT22;5100;45.176;5.714;2023-04-28T12:46:52;24.50;56.70
10121;DHT22;5100;45.176;5.714;2023-04-28T12:49:19;24.50;56.50
10121;DHT22;5100;45.176;5.714;2023-04-28T12:51:46;24.60;56.50
10121;DHT22;5100;45.176;5.714;2023-04-28T12:54:12;24.60;56.30
10121;DHT22;5100;45.176;5.714;2023-04-28T12:56:39;24.60;56.30
10121;DHT22;5100;45.176;5.714;2023-04-28T12:59:05;24.60;56.50
10121;DHT22;5100;45.176;5.714;2023-04-28T13:01:31;24.60;56.60
10121;DHT22;5100;45.176;5.714;2023-04-28T13:03:57;24.70;56.60
10121;DHT22;5100;45.176;5.714;2023-04-28T13:06:23;24.70;56.60
10121;DHT22;5100;45.176;5.714;2023-04-28T13:08:49;24.70;56.60
10121;DHT22;5100;45.176;5.714;2023-04-28T13:11:15;24.80;56.60
10121;DHT22;5100;45.176;5.714;2023-04-28T13:13:41;24.80;56.50
10121;DHT22;5100;45.176;5.714;2023-04-28T13:16:09;24.80;56.40
10121;DHT22;5100;45.176;5.714;2023-04-28T13:18:35;24.80;56.30
10121;DHT22;5100;45.176;5.714;2023-04-28T13:21:01;24.90;56.20
10121;DHT22;5100;45.176;5.714;2023-04-28T13:23:27;24.90;56.10
10121;DHT22;5100;45.176;5.714;2023-04-28T13:25:53;24.90;56.20
10121;DHT22;5100;45.176;5.714;2023-04-28T13:28:19;25.00;56.00
10121;DHT22;5100;45.176;5.714;2023-04-28T13:30:45;25.10;56.10
10121;DHT22;5100;45.176;5.714;2023-04-28T13:33:11;25.10;55.90
10121;DHT22;5100;45.176;5.714;2023-04-28T13:35:37;25.20;55.90
10121;DHT22;5100;45.176;5.714;2023-04-28T13:38:03;25.20;55.70
10121;DHT22;5100;45.176;5.714;2023-04-28T13:40:30;25.20;55.70
10121;DHT22;5100;45.176;5.714;2023-04-28T13:42:56;25.30;55.70
10121;DHT22;5100;45.176;5.714;2023-04-28T13:45:22;25.30;55.60
10121;DHT22;5100;45.176;5.714;2023-04-28T13:47:49;25.40;55.60
10121;DHT22;5100;45.176;5.714;2023-04-28T13:50:15;25.40;55.50
10121;DHT22;5100;45.176;5.714;2023-04-28T13:52:42;25.40;55.50
10121;DHT22;5100;45.176;5.714;2023-04-28T13:55:08;25.50;55.30
10121;DHT22;5100;45.176;5.714;2023-04-28T13:57:35;25.50;55.30
10121;DHT22;5100;45.176;5.714;2023-04-28T14:00:02;25.50;55.30
10121;DHT22;5100;45.176;5.714;2023-04-28T14:02:33;25.50;55.40
10121;DHT22;5100;45.176;5.714;2023-04-28T14:04:59;25.50;55.50
10121;DHT22;5100;45.176;5.714;2023-04-28T14:07:25;25.50;55.40
10121;DHT22;5100;45.176;5.714;2023-04-28T14:09:52;25.50;55.20
10121;DHT22;5100;45.176;5.714;2023-04-28T14:12:19;25.50;55.20
10121;DHT22;5100;45.176;5.714;2023-04-28T14:14:46;25.50;55.20
10121;DHT22;5100;45.176;5.714;2023-04-28T14:17:13;25.50;55.10
10121;DHT22;5100;45.176;5.714;2023-04-28T14:19:39;25.50;55.10
10121;DHT22;5100;45.176;5.714;2023-04-28T14:22:05;25.50;55.20
10121;DHT22;5100;45.176;5.714;2023-04-28T14:24:31;25.50;55.30
10121;DHT22;5100;45.176;5.714;2023-04-28T14:26:57;25.50;55.30
10121;DHT22;5100;45.176;5.714;2023-04-28T14:29:23;25.50;55.40
10121;DHT22;5100;45.176;5.714;2023-04-28T14:31:49;25.50;55.40
10121;DHT22;5100;45.176;5.714;2023-04-28T14:34:15;25.40;55.50
10121;DHT22;5100;45.176;5.714;2023-04-28T14:36:41;25.40;55.50
10121;DHT22;5100;45.176;5.714;2023-04-28T14:39:07;25.40;55.60
10121;DHT22;5100;45.176;5.714;2023-04-28T14:41:34;25.40;55.70
10121;DHT22;5100;45.176;5.714;2023-04-28T14:43:59;25.40;55.70
10121;DHT22;5100;45.176;5.714;2023-04-28T14:46:26;25.40;55.70
10121;DHT22;5100;45.176;5.714;2023-04-28T14:48:52;25.40;55.80
10121;DHT22;5100;45.176;5.714;2023-04-28T14:51:19;25.30;55.80
10121;DHT22;5100;45.176;5.714;2023-04-28T14:53:44;25.30;55.70
10121;DHT22;5100;45.176;5.714;2023-04-28T14:56:11;25.30;55.80
10121;DHT22;5100;45.176;5.714;2023-04-28T14:58:37;25.30;55.90
10121;DHT22;5100;45.176;5.714;2023-04-28T15:01:03;25.30;55.90
10121;DHT22;5100;45.176;5.714;2023-04-28T15:03:29;25.30;55.90
10121;DHT22;5100;45.176;5.714;2023-04-28T15:05:55;25.30;55.90
10121;DHT22;5100;45.176;5.714;2023-04-28T15:08:21;25.30;56.00
10121;DHT22;5100;45.176;5.714;2023-04-28T15:10:47;25.30;56.00
10121;DHT22;5100;45.176;5.714;2023-04-28T15:13:13;25.30;56.10
10121;DHT22;5100;45.176;5.714;2023-04-28T15:15:39;25.20;56.20
10121;DHT22;5100;45.176;5.714;2023-04-28T15:18:05;25.20;56.30
10121;DHT22;5100;45.176;5.714;2023-04-28T15:20:32;25.20;56.30
10121;DHT22;5100;45.176;5.714;2023-04-28T15:22:58;25.20;56.40
10121;DHT22;5100;45.176;5.714;2023-04-28T15:25:25;25.20;56.40
10121;DHT22;5100;45.176;5.714;2023-04-28T15:27:51;25.10;56.40
10121;DHT22;5100;45.176;5.714;2023-04-28T15:30:18;25.10;56.50
10121;DHT22;5100;45.176;5.714;2023-04-28T15:32:45;25.10;56.50
10121;DHT22;5100;45.176;5.714;2023-04-28T15:35:11;25.10;56.50
10121;DHT22;5100;45.176;5.714;2023-04-28T15:37:42;25.10;56.50
10121;DHT22;5100;45.176;5.714;2023-04-28T15:40:10;25.10;56.60
10121;DHT22;5100;45.176;5.714;2023-04-28T15:42:37;25.10;56.60
10121;DHT22;5100;45.176;5.714;2023-04-28T15:45:04;25.10;56.70
10121;DHT22;5100;45.176;5.714;2023-04-28T15:47:30;25.10;56.70
10121;DHT22;5100;45.176;5.714;2023-04-28T15:49:58;25.10;56.70
10121;DHT22;5100;45.176;5.714;2023-04-28T15:52:24;25.10;56.70
10121;DHT22;5100;45.176;5.714;2023-04-28T15:54:53;25.10;56.60
10121;DHT22;5100;45.176;5.714;2023-04-28T15:57:19;25.10;56.50
10121;DHT22;5100;45.176;5.714;2023-04-28T15:59:45;25.20;56.50
10121;DHT22;5100;45.176;5.714;2023-04-28T16:02:12;25.10;56.30
10121;DHT22;5100;45.176;5.714;2023-04-28T16:04:38;25.20;56.30
10121;DHT22;5100;45.176;5.714;2023-04-28T16:07:04;25.20;56.30